Gales Ferry, Connecticut
Current Conditions -  °F | °C
As of 2:56 PM on Saturday 25 Oct 2014 (Local Time) from KGON Reporting Station
Clear Clear  
Wind Chill: 60°   Ceiling: Unl
Heat Index: 60°   Visibility: 10mi
Dew Point: 45°   Wind: 15mph
Humidity: 57%   Direction: 230°SW
Pressure: 29.66"   Gusts: 22mph
Location:  41.43°N, 72.08°W
Report Text: KGON 251856Z 23013G19KT 10SM CLR 16/07 A2966 RMK AO2 SLP044 T01560072
Loading
Personal Weather Stations






























Interactive Weather Map
Tropical Storm Tracking
New forecast layout! Learn more

10-Day Weather Forecast

Advertisements
Track Severe Weather on mobile